ADDS METAR Data INFO
IDs: Format: Raw Decoded Include TAF

Data at: 0836 UTC 21 Oct 2017

PANC 210753Z 02005KT 10SM SCT065 BKN080 OVC095 M03/M11 A2929 RMK AO2 SLP922 T10331111 $
PANC 210653Z 36005KT 10SM FEW040 BKN070 M04/M11 A2929 RMK AO2 SLP923 T10391106 $
PANC 210553Z 36008KT 10SM FEW040 BKN090 M03/M12 A2929 RMK AO2 SLP923 T10331117 11022 21044 51002 $
PANC 210453Z 01006KT 10SM FEW040 SCT080 M03/M13 A2929 RMK AO2 SLP922 T10331128 $
PANC 210353Z 01006KT 10SM FEW040 FEW200 M04/M13 A2929 RMK AO2 SLP921 T10391128 $
PANC 210253Z 04004KT 10SM FEW040 FEW200 M04/M11 A2929 RMK AO2 SLP921 T10441111 53002 $
PANC 210153Z 05005KT 10SM FEW040 FEW200 M03/M12 A2928 RMK AO2 SLP918 T10281122 $
PANC 210053Z 04005KT 10SM FEW040 FEW200 M02/M12 A2928 RMK AO2 SLP917 T10221117 $
PANC 202353Z 04005KT 10SM FEW040 FEW200 M02/M12 A2928 RMK AO2 SLP919 T10221117 11022 21061 58003 $
PANC 202253Z VRB03KT 10SM FEW040 FEW200 M03/M11 A2929 RMK AO2 SLP920 T10281111 $
PANC 202153Z 04005KT 10SM FEW040 M03/M12 A2929 RMK AO2 SLP921 T10331117 $
PANC 202053Z 10SM CLR M04/M12 A2929 RMK AO2 SLP922 T10391117 50002 $
PANC 201953Z 00000KT 10SM FEW040 M04/M13 A2929 RMK AO2 SLP923 T10441133
PANC 201853Z 07005KT 10SM FEW040 M06/M13 A2929 RMK AO2 SLP922 T10561128
PANC 201753Z 36004KT 10SM FEW040 M06/M14 A2929 RMK AO2 SLP920 T10611144 11056 21072 52003
PANC 201653Z 03005KT 10SM FEW040 M07/M15 A2929 RMK AO2 SLP920 T10671150
PANC 201553Z 02005KT 10SM CLR M07/M16 A2928 RMK AO2 SLP917 T10671156
PANC 201453Z 01004KT 10SM CLR M07/M16 A2928 RMK AO2 SLP917 T10671156 51004
PANC 201353Z 36006KT 10SM CLR M06/M16 A2927 RMK AO2 SLP916 T10611156
PANC 201253Z 03005KT 10SM CLR M06/M16 A2927 RMK AO2 SLP914 T10611156
PANC 201153Z 01006KT 10SM CLR M06/M16 A2927 RMK AO2 SLP912 T10611156 11028 21061 50001
PANC 201053Z 02006KT 10SM CLR M06/M16 A2927 RMK AO2 SLP913 T10561156
PANC 200953Z 02006KT 10SM CLR M06/M15 A2927 RMK AO2 SLP913 T10611150
PANC 200853Z 01005KT 10SM CLR M05/M14 A2926 RMK AO2 SLP911 T10501144 400171050 53005
PANC 200753Z 35008KT 10SM CLR M04/M14 A2925 RMK AO2 SLP907 T10441144
PANC 200653Z 04007KT 10SM CLR M04/M13 A2925 RMK AO2 SLP905 AURBO T10391128
PANC 200553Z 33014G22KT 10SM CLR M03/M13 A2925 RMK AO2 SLP906 T10281128 10017 21028 50002
PANC 200453Z 32015G24KT 10SM CLR M02/M13 A2925 RMK AO2 SLP908 T10221128
PANC 200353Z 32011G19KT 10SM FEW060 M02/M13 A2925 RMK AO2 SLP905 T10171133
PANC 200253Z 33012KT 10SM FEW060 M01/M13 A2924 RMK AO2 SLP904 T10061128 55003
PANC 200153Z 32014KT 10SM FEW060 FEW100 00/M13 A2924 RMK AO2 SLP902 T00001133
PANC 200053Z 34014G22KT 10SM FEW060 FEW100 SCT250 01/M14 A2924 RMK AO2 SLP904 T00111144
PANC 192353Z 33016G23KT 10SM FEW060 FEW100 SCT250 01/M14 A2925 RMK AO2 SLP907 T00111144 10017 21017 58003
PANC 192253Z 33015G20KT 10SM FEW060 FEW100 SCT250 02/M13 A2926 RMK AO2 SLP910 T00171128
PANC 192153Z 33012KT 10SM FEW040 01/M13 A2927 RMK AO2 SLP912 T00111128
PANC 192053Z 33010G15KT 10SM FEW040 01/M13 A2926 RMK AO2 SLP910 T00061128 51005